Lyonsdale, New York
Current Conditions -  °F | °C
As of 8:53 PM on Monday 24 Nov 2014 (Local Time) from KRME Reporting Station
Scattered Clouds Scattered Clouds  
Wind Chill: 58°   Ceiling: Unl
Heat Index: 58°   Visibility: 10mi
Dew Point: 48°   Wind: 13mph
Humidity: 70%   Direction: 270°W
Pressure: 29.56"   Gusts: NA
Location:  43.6433°N, 75.3374°W
Report Text: KRME 250153Z AUTO 27011KT 10SM SCT090 14/09 A2956 RMK AO2 PK WND 29038/0100 WSHFT 0047 RAB00E19 SLP008 P0006 T01440089
Loading
Personal Weather Stations






























Interactive Weather Map New forecast layout! Learn more

10-Day Weather Forecast

Advertisements
Track Severe Weather on mobile